Time;durP1;ratioP1;P1;durP2;ratioP2;P2;SDS_P1;SDS_P2;PMS_P1;PMS_P2;Temp;Humidity;BMP_temperature;BMP_pressure;BME280_temperature;BME280_humidity;BME280_pressure;Samples;Min_cycle;Max_cycle;Signal;HPM_P1;HPM_P2
2022/03/25 00:01:00;;;;;;;112.80;57.85;;;4.60;99.90;;;;;;4994476;28;20096;-65
2022/03/25 00:03:26;;;;;;;111.68;58.45;;;4.60;99.90;;;;;;5007114;28;20479;-66
2022/03/25 00:05:52;;;;;;;116.68;59.88;;;4.60;99.90;;;;;;4995789;28;20053;-66
2022/03/25 00:08:17;;;;;;;117.40;58.38;;;4.50;99.90;;;;;;4996358;28;20101;-65
2022/03/25 00:10:43;;;;;;;107.38;57.35;;;4.50;99.90;;;;;;4996189;28;20054;-65
2022/03/25 00:13:10;;;;;;;107.30;57.15;;;4.50;99.90;;;;;;4994558;28;20061;-65
2022/03/25 00:15:36;;;;;;;113.50;57.30;;;4.50;99.90;;;;;;4995506;28;20046;-65
2022/03/25 00:18:02;;;;;;;113.40;57.50;;;4.50;99.90;;;;;;4994568;28;20093;-67
2022/03/25 00:20:28;;;;;;;115.05;58.47;;;4.40;99.90;;;;;;4995111;28;20055;-66
2022/03/25 00:22:54;;;;;;;112.70;57.42;;;4.40;99.90;;;;;;4993998;28;20144;-65
2022/03/25 00:25:20;;;;;;;117.72;57.33;;;4.30;99.90;;;;;;4995017;28;20130;-66
2022/03/25 00:27:46;;;;;;;119.68;59.60;;;4.30;99.90;;;;;;4994008;28;20137;-66
2022/03/25 00:30:12;;;;;;;110.50;57.03;;;4.30;99.90;;;;;;4995450;28;20093;-65
2022/03/25 00:32:37;;;;;;;116.80;57.85;;;4.30;99.90;;;;;;4992222;28;20096;-65
2022/03/25 00:35:04;;;;;;;108.95;56.15;;;4.20;99.90;;;;;;4994353;28;20108;-65
2022/03/25 00:37:30;;;;;;;109.82;57.65;;;4.20;99.90;;;;;;4993978;28;20054;-65
2022/03/25 00:39:55;;;;;;;109.68;56.20;;;4.20;99.90;;;;;;4995614;28;20146;-65
2022/03/25 00:42:21;;;;;;;112.88;55.65;;;4.20;99.90;;;;;;4994023;28;20173;-66
2022/03/25 00:44:47;;;;;;;108.00;56.35;;;4.20;99.90;;;;;;4994608;28;20466;-65
2022/03/25 00:47:14;;;;;;;114.45;57.53;;;4.10;99.90;;;;;;4993559;28;20059;-65
2022/03/25 00:49:39;;;;;;;110.28;56.05;;;4.10;99.90;;;;;;4994464;28;20042;-65
2022/03/25 00:52:05;;;;;;;111.95;55.65;;;4.10;99.90;;;;;;4994492;28;20533;-65
2022/03/25 00:54:31;;;;;;;105.35;55.70;;;4.00;99.90;;;;;;4995680;28;20513;-64
2022/03/25 00:56:56;;;;;;;105.65;55.08;;;4.00;99.90;;;;;;4994984;28;20057;-65
2022/03/25 00:59:22;;;;;;;116.43;57.67;;;4.00;99.90;;;;;;4994573;28;20050;-65
2022/03/25 01:01:47;;;;;;;109.13;55.30;;;4.00;99.90;;;;;;4992895;28;20081;-64
2022/03/25 01:04:13;;;;;;;119.47;55.13;;;3.90;99.90;;;;;;4977209;28;20090;-65
2022/03/25 01:06:39;;;;;;;99.60;53.05;;;3.90;99.90;;;;;;4993983;28;20055;-66
2022/03/25 01:09:05;;;;;;;103.03;53.28;;;3.90;99.90;;;;;;4994856;28;20094;-66
2022/03/25 01:11:31;;;;;;;103.72;56.40;;;3.80;99.90;;;;;;4993621;28;20112;-66
2022/03/25 01:13:58;;;;;;;104.70;54.03;;;3.80;99.90;;;;;;4993080;28;20054;-66
2022/03/25 01:16:24;;;;;;;107.63;55.88;;;3.70;99.90;;;;;;4993762;28;20050;-66
2022/03/25 01:18:50;;;;;;;104.00;54.25;;;3.80;99.90;;;;;;4993829;28;20100;-66
2022/03/25 01:21:17;;;;;;;104.97;54.35;;;3.70;99.90;;;;;;4995160;28;20058;-66
2022/03/25 01:23:44;;;;;;;100.88;52.25;;;3.60;99.90;;;;;;4993989;28;20367;-65
2022/03/25 01:26:09;;;;;;;100.03;52.83;;;3.60;99.90;;;;;;5010069;28;20046;-65
2022/03/25 01:28:35;;;;;;;97.43;51.42;;;3.60;99.90;;;;;;4993250;28;20457;-66
2022/03/25 01:31:04;;;;;;;94.75;50.72;;;3.60;99.90;;;;;;4992428;28;20054;-66
2022/03/25 01:33:30;;;;;;;100.00;51.25;;;3.60;99.90;;;;;;4994607;28;20061;-66
2022/03/25 01:35:56;;;;;;;100.82;52.40;;;3.50;99.90;;;;;;4976317;28;20054;-65
2022/03/25 01:38:23;;;;;;;97.18;50.35;;;3.50;99.90;;;;;;4993502;28;20486;-66
2022/03/25 01:40:48;;;;;;;102.88;54.35;;;3.50;99.90;;;;;;4994411;28;20055;-65
2022/03/25 01:43:14;;;;;;;93.03;50.22;;;3.40;99.90;;;;;;4993458;28;20050;-66
2022/03/25 01:45:40;;;;;;;96.65;51.92;;;3.40;99.90;;;;;;4987064;28;20086;-66
2022/03/25 01:48:13;;;;;;;97.40;51.00;;;3.30;99.90;;;;;;4974819;28;20133;-65
2022/03/25 01:50:41;;;;;;;102.38;53.15;;;3.30;99.90;;;;;;4973655;28;20124;-65
2022/03/25 01:53:26;;;;;;;103.18;51.22;;;3.20;99.90;;;;;;4973559;28;20458;-65
2022/03/25 01:55:56;;;;;;;98.30;50.45;;;3.20;99.90;;;;;;4973830;28;20047;-66
2022/03/25 01:58:22;;;;;;;100.30;51.83;;;3.20;99.90;;;;;;4974652;28;20051;-66
2022/03/25 02:00:49;;;;;;;96.72;50.40;;;3.10;99.90;;;;;;4986972;28;20058;-65
2022/03/25 02:03:16;;;;;;;101.78;51.95;;;3.10;99.90;;;;;;4993165;28;20050;-64
2022/03/25 02:05:43;;;;;;;99.97;52.28;;;3.10;99.90;;;;;;4993041;28;20061;-65
2022/03/25 02:08:09;;;;;;;98.03;51.47;;;3.10;99.90;;;;;;4992843;28;20061;-65
2022/03/25 02:10:36;;;;;;;98.57;50.92;;;3.00;99.90;;;;;;4994232;28;20072;-67
2022/03/25 02:13:02;;;;;;;101.93;51.97;;;3.00;99.90;;;;;;4991887;28;20061;-66
2022/03/25 02:15:42;;;;;;;104.78;49.53;;;3.00;99.90;;;;;;4987269;28;20062;-65
2022/03/25 02:18:11;;;;;;;97.05;50.70;;;2.90;99.90;;;;;;4973222;28;20057;-64
2022/03/25 02:20:38;;;;;;;94.93;50.10;;;2.90;99.90;;;;;;4974573;28;20081;-66
2022/03/25 02:23:04;;;;;;;94.78;51.33;;;2.90;99.90;;;;;;4972946;28;20058;-66
2022/03/25 02:25:31;;;;;;;96.05;49.13;;;2.90;99.90;;;;;;4973387;28;20055;-65
2022/03/25 02:27:58;;;;;;;90.03;47.30;;;2.90;99.90;;;;;;4972825;28;20483;-65
2022/03/25 02:30:25;;;;;;;90.68;45.45;;;2.90;99.90;;;;;;4986773;28;20244;-66
2022/03/25 02:32:52;;;;;;;87.47;47.08;;;2.80;99.90;;;;;;4992156;28;20454;-64
2022/03/25 02:35:17;;;;;;;89.70;46.92;;;2.80;99.90;;;;;;4992614;28;20061;-65
2022/03/25 02:37:43;;;;;;;90.15;47.63;;;2.80;99.90;;;;;;4992397;28;20062;-65
2022/03/25 02:40:09;;;;;;;93.72;48.58;;;2.70;99.90;;;;;;4992595;28;20054;-66
2022/03/25 02:42:35;;;;;;;90.55;48.30;;;2.70;99.90;;;;;;4993779;28;20149;-66
2022/03/25 02:45:00;;;;;;;92.15;47.97;;;2.70;99.90;;;;;;4985464;28;20154;-65
2022/03/25 02:47:26;;;;;;;95.25;47.63;;;2.70;99.90;;;;;;4972950;28;20058;-64
2022/03/25 02:49:52;;;;;;;102.50;52.30;;;2.60;99.90;;;;;;4974819;28;20047;-65
2022/03/25 02:52:17;;;;;;;143.82;55.55;;;2.70;99.90;;;;;;4975612;28;20054;-65
2022/03/25 02:54:43;;;;;;;357.75;63.35;;;2.70;99.90;;;;;;4991927;28;20065;-65
2022/03/25 02:57:08;;;;;;;608.17;74.18;;;2.70;99.90;;;;;;4991233;28;20104;-66
2022/03/25 02:59:35;;;;;;;648.53;72.10;;;2.70;99.90;;;;;;4992382;28;20090;-65
2022/03/25 03:02:00;;;;;;;690.30;79.53;;;2.70;99.90;;;;;;4987163;28;20042;-66
2022/03/25 03:04:27;;;;;;;756.03;77.85;;;2.70;99.90;;;;;;5008003;28;20101;-65
2022/03/25 03:06:53;;;;;;;668.70;73.25;;;2.70;99.90;;;;;;4993429;28;20169;-66
2022/03/25 03:09:18;;;;;;;588.38;70.00;;;2.60;99.90;;;;;;4992017;28;20184;-66
2022/03/25 03:11:44;;;;;;;594.85;72.13;;;2.60;99.90;;;;;;4992973;28;20060;-65
2022/03/25 03:14:10;;;;;;;549.70;65.80;;;2.60;99.90;;;;;;4993379;28;20137;-65
2022/03/25 03:16:36;;;;;;;539.85;68.45;;;2.60;99.90;;;;;;5007619;28;20054;-65
2022/03/25 03:19:01;;;;;;;415.98;63.15;;;2.60;99.90;;;;;;4974522;28;20410;-65
2022/03/25 03:21:29;;;;;;;291.75;54.47;;;2.50;99.90;;;;;;4956744;28;20098;-65
2022/03/25 03:23:55;;;;;;;403.77;58.92;;;2.50;99.90;;;;;;4980901;28;20129;-65
2022/03/25 03:26:21;;;;;;;583.05;65.75;;;2.50;99.90;;;;;;4992554;28;20458;-66
2022/03/25 03:28:46;;;;;;;447.73;61.33;;;2.60;99.90;;;;;;4991556;28;20325;-65
2022/03/25 03:31:12;;;;;;;502.38;66.75;;;2.40;99.90;;;;;;4992038;28;20057;-66
2022/03/25 03:33:38;;;;;;;323.25;52.75;;;2.40;99.90;;;;;;4992044;28;20062;-65
2022/03/25 03:36:04;;;;;;;383.38;53.67;;;2.40;99.90;;;;;;4991931;28;20050;-66
2022/03/25 03:38:30;;;;;;;434.02;50.78;;;2.40;99.90;;;;;;4991321;28;20042;-66
2022/03/25 03:40:55;;;;;;;341.02;49.75;;;2.40;99.90;;;;;;4991600;28;20062;-66
2022/03/25 03:43:21;;;;;;;378.48;52.78;;;2.30;99.90;;;;;;4974525;28;20038;-65
2022/03/25 03:45:47;;;;;;;428.23;53.30;;;2.30;99.90;;;;;;4992977;28;20054;-66
2022/03/25 03:48:12;;;;;;;378.05;51.10;;;2.30;99.90;;;;;;4991828;28;20054;-65
2022/03/25 03:50:38;;;;;;;238.32;41.28;;;2.30;99.90;;;;;;4992518;28;20054;-66
2022/03/25 03:53:04;;;;;;;503.92;56.97;;;2.30;99.90;;;;;;4981085;28;20410;-65
2022/03/25 03:55:30;;;;;;;466.00;56.08;;;2.30;99.90;;;;;;4972832;28;20058;-67
2022/03/25 03:57:56;;;;;;;242.80;41.10;;;2.30;99.90;;;;;;4980706;28;20056;-66
2022/03/25 04:00:24;;;;;;;486.35;59.95;;;2.30;99.90;;;;;;4995534;28;20572;-66
2022/03/25 04:02:50;;;;;;;611.30;71.13;;;2.20;99.90;;;;;;4995047;28;20517;-64
2022/03/25 04:05:16;;;;;;;320.35;54.92;;;2.20;99.90;;;;;;4996591;28;20137;-66
2022/03/25 04:07:44;;;;;;;413.15;56.33;;;2.20;99.90;;;;;;5011094;28;20059;-66
2022/03/25 04:10:10;;;;;;;317.98;47.72;;;2.20;99.90;;;;;;4995262;28;20050;-65
2022/03/25 04:12:35;;;;;;;420.95;53.65;;;2.20;99.90;;;;;;4994470;28;20058;-65
2022/03/25 04:15:02;;;;;;;429.98;53.08;;;2.20;99.90;;;;;;4995405;28;20125;-65
2022/03/25 04:17:28;;;;;;;352.55;46.78;;;2.20;99.90;;;;;;4994826;28;20050;-65
2022/03/25 04:19:53;;;;;;;431.83;51.75;;;2.20;99.90;;;;;;4995594;28;20364;-65
2022/03/25 04:22:19;;;;;;;335.45;45.63;;;2.20;99.90;;;;;;4986110;28;20042;-66
2022/03/25 04:24:45;;;;;;;357.15;46.35;;;2.10;99.90;;;;;;4992416;28;20046;-64
2022/03/25 04:27:10;;;;;;;381.75;45.83;;;2.10;99.90;;;;;;4994432;28;20536;-65
2022/03/25 04:29:36;;;;;;;400.80;45.55;;;2.10;99.90;;;;;;4995016;28;20474;-65
2022/03/25 04:32:02;;;;;;;421.48;46.65;;;2.00;99.90;;;;;;4994623;28;20133;-65
2022/03/25 04:34:27;;;;;;;337.50;45.47;;;2.00;99.90;;;;;;4994810;28;20050;-66
2022/03/25 04:36:53;;;;;;;337.58;44.05;;;2.00;99.90;;;;;;4994291;28;20105;-65
2022/03/25 04:39:18;;;;;;;333.90;44.85;;;1.90;99.90;;;;;;4995494;28;20058;-66
2022/03/25 04:41:44;;;;;;;357.73;45.88;;;1.90;99.90;;;;;;4994101;28;20495;-66
2022/03/25 04:44:10;;;;;;;292.40;46.88;;;1.90;99.90;;;;;;4994586;28;20050;-65
2022/03/25 04:46:35;;;;;;;251.38;41.30;;;1.80;99.90;;;;;;4994646;28;20066;-66
2022/03/25 04:49:01;;;;;;;270.88;43.42;;;1.70;99.90;;;;;;4994174;28;20046;-66
2022/03/25 04:51:27;;;;;;;283.65;44.67;;;1.70;99.90;;;;;;5009673;28;20054;-64
2022/03/25 04:53:52;;;;;;;281.23;45.17;;;1.60;99.90;;;;;;4993595;28;20056;-65
2022/03/25 04:56:18;;;;;;;211.30;39.97;;;1.70;99.90;;;;;;4994311;28;20490;-65
2022/03/25 04:58:44;;;;;;;287.83;45.67;;;1.60;99.90;;;;;;4995360;28;20467;-66
2022/03/25 05:01:10;;;;;;;181.27;40.58;;;1.60;99.90;;;;;;4961346;28;20086;-66
2022/03/25 05:03:35;;;;;;;194.48;41.72;;;1.50;99.90;;;;;;4975975;28;20093;-67
2022/03/25 05:06:01;;;;;;;250.38;43.45;;;1.50;99.90;;;;;;4975488;28;20518;-66
2022/03/25 05:08:27;;;;;;;229.75;42.72;;;1.60;99.90;;;;;;4994273;28;20047;-67
2022/03/25 05:10:52;;;;;;;196.57;42.05;;;1.50;99.90;;;;;;4993758;28;20077;-65
2022/03/25 05:13:18;;;;;;;178.68;40.72;;;1.50;99.90;;;;;;4992865;28;20060;-66
2022/03/25 05:15:44;;;;;;;133.20;42.33;;;1.40;99.90;;;;;;5009950;28;20128;-65
2022/03/25 05:18:10;;;;;;;200.43;43.20;;;1.40;99.90;;;;;;4993689;28;20054;-66
2022/03/25 05:20:36;;;;;;;163.93;40.30;;;1.40;99.90;;;;;;4994490;28;20046;-66
2022/03/25 05:23:02;;;;;;;203.45;42.45;;;1.40;99.90;;;;;;4980824;28;20053;-65
2022/03/25 05:25:27;;;;;;;200.65;41.78;;;1.40;99.90;;;;;;4977787;28;20367;-65
2022/03/25 05:27:55;;;;;;;170.35;37.75;;;1.30;99.90;;;;;;4993298;28;20117;-66
2022/03/25 05:30:24;;;;;;;201.77;41.53;;;1.40;99.90;;;;;;4995102;28;20442;-66
2022/03/25 05:32:50;;;;;;;216.45;39.67;;;1.30;99.90;;;;;;4993089;28;20089;-65
2022/03/25 05:35:17;;;;;;;246.23;42.40;;;1.30;99.90;;;;;;4995376;28;20054;-66
2022/03/25 05:37:43;;;;;;;167.68;38.22;;;1.20;99.90;;;;;;4984699;28;20050;-65
2022/03/25 05:40:09;;;;;;;188.98;38.97;;;1.20;99.90;;;;;;4977199;28;20129;-65
2022/03/25 05:42:36;;;;;;;255.02;38.58;;;1.20;99.90;;;;;;4992776;28;20145;-66
2022/03/25 05:45:03;;;;;;;200.90;39.95;;;1.20;99.90;;;;;;4967370;28;20430;-65
2022/03/25 05:47:29;;;;;;;92.13;35.63;;;1.20;99.90;;;;;;5009163;28;20050;-66
2022/03/25 05:49:54;;;;;;;123.28;36.95;;;1.20;99.90;;;;;;4993049;28;20128;-64
2022/03/25 05:52:20;;;;;;;76.82;34.45;;;1.20;99.90;;;;;;4992862;28;20085;-67
2022/03/25 05:54:49;;;;;;;58.92;33.65;;;1.20;99.90;;;;;;4993066;28;20104;-67
2022/03/25 05:57:15;;;;;;;54.80;32.90;;;1.20;99.90;;;;;;4992665;28;20185;-64
2022/03/25 05:59:40;;;;;;;57.90;34.15;;;1.30;99.90;;;;;;4993006;28;20133;-65
2022/03/25 06:02:06;;;;;;;54.67;32.80;;;1.30;99.90;;;;;;4976438;28;20057;-65
2022/03/25 06:04:31;;;;;;;63.88;37.03;;;1.40;99.90;;;;;;4993282;28;20068;-67
2022/03/25 06:06:57;;;;;;;67.45;38.25;;;1.30;99.90;;;;;;4992606;28;20156;-65
2022/03/25 06:09:22;;;;;;;63.95;39.08;;;1.30;99.90;;;;;;4992803;28;20142;-66
2022/03/25 06:11:48;;;;;;;73.25;43.35;;;1.40;99.90;;;;;;4993463;28;20066;-66
2022/03/25 06:14:17;;;;;;;65.70;39.20;;;1.30;99.90;;;;;;4992365;28;20125;-66
2022/03/25 06:16:42;;;;;;;61.13;37.55;;;1.40;99.90;;;;;;4992179;28;20133;-64
2022/03/25 06:19:08;;;;;;;60.40;36.60;;;1.40;99.90;;;;;;4984171;28;20042;-64
2022/03/25 06:21:34;;;;;;;64.97;38.55;;;1.50;99.90;;;;;;4981783;28;20204;-65
2022/03/25 06:24:00;;;;;;;65.75;39.10;;;1.50;99.90;;;;;;4977417;28;20059;-66
2022/03/25 06:26:26;;;;;;;66.32;38.83;;;1.50;99.90;;;;;;4973484;28;20134;-66
2022/03/25 06:28:52;;;;;;;64.38;38.35;;;1.60;99.90;;;;;;4959354;28;20141;-66
2022/03/25 06:31:17;;;;;;;66.63;37.95;;;1.80;99.90;;;;;;4992249;28;20054;-65
2022/03/25 06:33:43;;;;;;;62.50;36.30;;;1.90;99.90;;;;;;4988995;28;20056;-65
2022/03/25 06:36:13;;;;;;;55.60;35.38;;;2.10;99.90;;;;;;4973544;28;20376;-65
2022/03/25 06:38:39;;;;;;;66.60;38.63;;;2.20;99.90;;;;;;4981352;28;20050;-65
2022/03/25 06:41:05;;;;;;;63.05;37.70;;;2.30;99.90;;;;;;4991118;28;20456;-65
2022/03/25 06:43:30;;;;;;;68.93;40.58;;;2.40;99.90;;;;;;4987557;28;20122;-65
2022/03/25 06:45:56;;;;;;;65.30;38.45;;;2.50;99.90;;;;;;4991718;28;20121;-65
2022/03/25 06:48:25;;;;;;;72.05;40.40;;;2.70;99.90;;;;;;4992680;28;20054;-66
2022/03/25 06:50:54;;;;;;;68.78;40.17;;;2.80;99.90;;;;;;4992180;28;20078;-65
2022/03/25 06:53:20;;;;;;;66.15;38.67;;;3.00;99.90;;;;;;4989626;28;20145;-66
2022/03/25 06:56:11;;;;;;;70.93;39.28;;;3.10;99.90;;;;;;4982911;28;20201;-66
2022/03/25 06:58:37;;;;;;;72.50;38.97;;;3.20;99.90;;;;;;4991908;28;20195;-66
2022/03/25 07:01:06;;;;;;;78.38;41.92;;;3.30;99.90;;;;;;4975411;28;20057;-65
2022/03/25 07:03:33;;;;;;;76.63;41.20;;;3.40;99.90;;;;;;4985917;28;20432;-67
2022/03/25 07:06:03;;;;;;;75.18;41.78;;;3.60;99.90;;;;;;4986134;28;20049;-66
2022/03/25 07:08:29;;;;;;;80.63;41.85;;;3.70;99.90;;;;;;4982495;28;20066;-66
2022/03/25 07:10:59;;;;;;;68.18;39.70;;;3.80;99.90;;;;;;4990817;28;20440;-65
2022/03/25 07:13:26;;;;;;;70.15;39.30;;;3.90;99.90;;;;;;5002663;28;20057;-66
2022/03/25 07:15:52;;;;;;;68.78;38.13;;;4.10;99.90;;;;;;4996940;28;20407;-67
2022/03/25 07:18:17;;;;;;;68.88;38.38;;;4.20;99.90;;;;;;4985538;28;20070;-67
2022/03/25 07:20:43;;;;;;;67.00;38.38;;;4.40;99.90;;;;;;4991265;28;20082;-65
2022/03/25 07:23:10;;;;;;;66.93;36.63;;;4.50;99.90;;;;;;4985146;28;20054;-66
2022/03/25 07:25:36;;;;;;;69.32;37.42;;;4.60;99.90;;;;;;4985038;28;20502;-67
2022/03/25 07:28:02;;;;;;;67.15;35.47;;;4.70;99.90;;;;;;4990413;28;20053;-67
2022/03/25 07:30:28;;;;;;;63.50;38.05;;;4.80;99.90;;;;;;4987159;28;20054;-67
2022/03/25 07:32:58;;;;;;;69.20;38.90;;;5.00;99.90;;;;;;4992005;28;20129;-66
2022/03/25 07:35:25;;;;;;;62.55;35.65;;;5.10;99.90;;;;;;4995741;28;20149;-66
2022/03/25 07:37:51;;;;;;;68.55;38.28;;;5.30;99.90;;;;;;4994587;28;20125;-66
2022/03/25 07:40:17;;;;;;;67.93;38.33;;;5.50;99.90;;;;;;4995021;28;20531;-66
2022/03/25 07:42:46;;;;;;;66.25;37.90;;;5.60;99.90;;;;;;5008134;28;20439;-68
2022/03/25 07:45:15;;;;;;;65.45;38.17;;;5.70;99.90;;;;;;4981842;28;20056;-66
2022/03/25 07:47:49;;;;;;;63.70;37.72;;;5.90;99.90;;;;;;4995678;28;20427;-66
2022/03/25 07:50:20;;;;;;;62.90;37.75;;;6.00;99.90;;;;;;5010465;28;20038;-66
2022/03/25 07:52:49;;;;;;;62.75;37.50;;;6.20;99.90;;;;;;4994877;28;20070;-66
2022/03/25 07:55:25;;;;;;;60.72;37.00;;;6.30;99.90;;;;;;5009567;28;20058;-66
2022/03/25 07:57:50;;;;;;;64.90;37.58;;;6.50;99.90;;;;;;4994666;28;20050;-66
2022/03/25 08:00:16;;;;;;;60.53;36.60;;;6.70;99.90;;;;;;4994976;28;20074;-67
2022/03/25 08:02:48;;;;;;;62.08;38.65;;;6.80;99.90;;;;;;4990580;28;20055;-67
2022/03/25 08:05:14;;;;;;;62.45;37.42;;;7.00;99.90;;;;;;4996181;28;20050;-67
2022/03/25 08:07:49;;;;;;;60.58;37.30;;;7.10;99.90;;;;;;4994555;28;20541;-67
2022/03/25 08:10:18;;;;;;;66.25;38.53;;;7.30;99.90;;;;;;4996867;28;20058;-67
2022/03/25 08:12:44;;;;;;;62.78;37.60;;;7.40;99.90;;;;;;4994436;28;20490;-67
2022/03/25 08:15:10;;;;;;;59.10;37.22;;;7.50;99.90;;;;;;4977299;28;20047;-67
2022/03/25 08:18:05;;;;;;;60.30;36.40;;;7.60;99.90;;;;;;4975628;28;20093;-67
2022/03/25 08:20:40;;;;;;;53.72;35.35;;;7.80;99.90;;;;;;4975447;28;20050;-67
2022/03/25 08:23:09;;;;;;;54.60;33.17;;;7.90;99.90;;;;;;4975476;28;20134;-67
2022/03/25 08:28:19;;;;;;;50.00;33.50;;;8.20;99.90;;;;;;4976298;28;20198;-67
2022/03/25 08:30:46;;;;;;;51.97;34.25;;;8.40;99.90;;;;;;4975100;28;20058;-67
2022/03/25 08:33:12;;;;;;;48.83;32.67;;;8.50;99.90;;;;;;4974985;28;20046;-67
2022/03/25 08:35:40;;;;;;;50.60;34.28;;;8.70;99.90;;;;;;4976544;28;20069;-67
2022/03/25 08:38:07;;;;;;;47.65;31.85;;;8.90;99.90;;;;;;4976292;28;20061;-67
2022/03/25 08:40:34;;;;;;;52.83;33.53;;;9.00;99.90;;;;;;4980083;28;20053;-68
2022/03/25 08:43:01;;;;;;;48.95;31.92;;;9.20;99.90;;;;;;4991473;28;20097;-67
2022/03/25 08:45:27;;;;;;;51.80;31.63;;;9.30;99.90;;;;;;4993698;28;20062;-66
2022/03/25 08:47:53;;;;;;;51.63;32.00;;;9.40;99.90;;;;;;4994284;28;20372;-67
2022/03/25 08:50:22;;;;;;;48.35;31.08;;;9.60;99.90;;;;;;4995878;28;20145;-67
2022/03/25 08:52:49;;;;;;;49.72;30.50;;;9.70;99.90;;;;;;4995414;28;20482;-67
2022/03/25 08:55:16;;;;;;;46.83;30.42;;;9.80;99.90;;;;;;4984234;28;20059;-67
2022/03/25 08:57:42;;;;;;;46.17;29.90;;;9.90;99.90;;;;;;4975636;28;20086;-67
2022/03/25 09:00:11;;;;;;;45.25;29.25;;;10.10;99.90;;;;;;4974894;28;20097;-67
2022/03/25 09:02:38;;;;;;;48.42;29.90;;;10.20;99.90;;;;;;4995450;28;20094;-68
2022/03/25 09:05:04;;;;;;;44.15;30.33;;;10.30;99.90;;;;;;4995481;28;20050;-67
2022/03/25 09:07:30;;;;;;;43.88;29.08;;;10.40;99.90;;;;;;4993717;28;20097;-67
2022/03/25 09:09:56;;;;;;;46.15;29.17;;;10.60;99.90;;;;;;4993856;28;20054;-67
2022/03/25 09:12:23;;;;;;;45.03;28.08;;;10.70;99.90;;;;;;4994590;28;20062;-67
2022/03/25 09:14:49;;;;;;;42.00;28.08;;;10.80;99.90;;;;;;4994079;28;20125;-67
2022/03/25 09:17:15;;;;;;;41.67;27.23;;;10.90;99.90;;;;;;4993375;28;20061;-68
2022/03/25 09:19:42;;;;;;;44.78;27.48;;;10.90;99.90;;;;;;4992072;28;20094;-67
2022/03/25 09:22:08;;;;;;;42.58;27.00;;;11.00;99.90;;;;;;4974341;28;20125;-67
2022/03/25 09:24:33;;;;;;;46.40;27.83;;;11.10;99.90;;;;;;4958238;28;20130;-67
2022/03/25 09:26:59;;;;;;;40.35;27.05;;;11.30;99.90;;;;;;4977871;28;20047;-68
2022/03/25 09:29:25;;;;;;;41.75;26.58;;;11.40;99.90;;;;;;4971953;28;20057;-67
2022/03/25 09:31:50;;;;;;;39.53;25.83;;;11.60;99.90;;;;;;4992936;28;20129;-67
2022/03/25 09:37:00;;;;;;;43.50;26.23;;;11.80;99.90;;;;;;4993036;28;20054;-67
2022/03/25 09:39:25;;;;;;;40.72;26.30;;;12.00;99.90;;;;;;4992736;28;20050;-68
2022/03/25 09:41:52;;;;;;;39.05;25.73;;;12.10;99.90;;;;;;4975734;28;20129;-68
2022/03/25 09:44:18;;;;;;;38.90;23.70;;;12.20;99.90;;;;;;4974050;28;20051;-66
2022/03/25 09:46:44;;;;;;;38.55;25.80;;;12.20;99.90;;;;;;4974036;28;20117;-66
2022/03/25 09:49:11;;;;;;;39.42;25.60;;;12.30;99.90;;;;;;4977274;28;20054;-67
2022/03/25 09:51:37;;;;;;;37.85;25.08;;;12.40;99.90;;;;;;4983090;28;20051;-67
2022/03/25 09:54:05;;;;;;;38.28;24.73;;;12.40;99.90;;;;;;4983309;28;20418;-66
2022/03/25 09:56:32;;;;;;;42.90;25.13;;;12.50;99.90;;;;;;4983402;28;20069;-67
2022/03/25 09:58:58;;;;;;;38.00;24.02;;;12.60;99.90;;;;;;4984541;28;20047;-67
2022/03/25 10:01:24;;;;;;;38.22;24.40;;;12.70;99.90;;;;;;4982932;28;20654;-67
2022/03/25 10:03:50;;;;;;;41.13;23.77;;;12.80;99.90;;;;;;4991824;28;20046;-66
2022/03/25 10:06:16;;;;;;;34.95;22.15;;;12.90;99.90;;;;;;4990258;28;20096;-66
2022/03/25 10:08:44;;;;;;;34.17;22.27;;;12.90;99.90;;;;;;4983916;28;20130;-67
2022/03/25 10:11:30;;;;;;;36.33;22.27;;;13.00;99.90;;;;;;4992926;28;20058;-66
2022/03/25 10:14:15;;;;;;;32.55;21.20;;;13.20;97.50;;;;;;4992562;28;20486;-67
2022/03/25 10:16:43;;;;;;;33.13;22.00;;;13.30;95.10;;;;;;4993800;28;20050;-66
2022/03/25 10:19:12;;;;;;;34.90;21.55;;;13.40;99.90;;;;;;4991775;28;20054;-67
2022/03/25 10:21:56;;;;;;;31.10;20.05;;;13.50;98.80;;;;;;4974167;28;20050;-66
2022/03/25 10:24:43;;;;;;;33.35;19.73;;;13.70;78.00;;;;;;4973989;28;20058;-67
2022/03/25 10:27:12;;;;;;;30.83;20.45;;;13.80;76.10;;;;;;4972853;28;20138;-68
2022/03/25 10:29:37;;;;;;;34.95;20.02;;;13.90;93.40;;;;;;4973530;28;20143;-67
2022/03/25 10:32:11;;;;;;;31.65;19.90;;;14.00;91.50;;;;;;4957225;28;20499;-67
2022/03/25 10:34:39;;;;;;;32.22;20.80;;;14.10;84.20;;;;;;4973566;28;20050;-68
2022/03/25 10:37:11;;;;;;;33.08;20.30;;;14.10;82.30;;;;;;4956706;28;20133;-68
2022/03/25 10:39:37;;;;;;;;;;;14.30;78.30;;;;;;4973089;28;20134;-68
2022/03/25 10:42:05;;;;;;;35.85;20.05;;;14.30;67.90;;;;;;4972523;28;20065;-67
2022/03/25 10:44:37;;;;;;;30.83;20.35;;;14.40;82.70;;;;;;4973033;28;20051;-66
2022/03/25 10:47:24;;;;;;;33.05;20.35;;;14.50;76.00;;;;;;4973285;28;20058;-67
2022/03/25 10:49:53;;;;;;;36.35;20.05;;;14.60;69.40;;;;;;4982803;28;20053;-66
2022/03/25 10:52:34;;;;;;;32.80;20.52;;;14.80;73.10;;;;;;4970850;28;20057;-66
2022/03/25 10:55:20;;;;;;;34.85;21.00;;;14.70;67.80;;;;;;4982697;28;20525;-67
2022/03/25 10:57:58;;;;;;;37.75;22.02;;;14.80;68.30;;;;;;5002514;28;20063;-64
2022/03/25 11:00:25;;;;;;;34.53;21.27;;;14.80;68.80;;;;;;4983579;28;20047;-67
2022/03/25 11:02:52;;;;;;;31.23;20.83;;;14.80;69.40;;;;;;5003445;28;20051;-65
2022/03/25 11:05:18;;;;;;;33.30;21.52;;;14.80;69.50;;;;;;4985204;28;20467;-65
2022/03/25 11:07:46;;;;;;;31.58;20.83;;;14.90;68.70;;;;;;4981824;28;20053;-65
2022/03/25 11:10:17;;;;;;;31.52;20.02;;;15.00;67.40;;;;;;4987821;28;20085;-64
2022/03/25 11:12:48;;;;;;;35.20;21.05;;;15.10;68.20;;;;;;4992061;28;20096;-65
2022/03/25 11:15:19;;;;;;;35.08;22.83;;;15.10;67.10;;;;;;4992940;28;20500;-66
2022/03/25 11:17:46;;;;;;;37.58;21.83;;;15.10;66.40;;;;;;4987527;28;20054;-64
2022/03/25 11:20:14;;;;;;;30.45;20.20;;;15.20;65.40;;;;;;4977901;28;20487;-65
2022/03/25 11:22:53;;;;;;;36.28;21.38;;;15.20;64.50;;;;;;4976436;28;20059;-65
2022/03/25 11:25:21;;;;;;;34.00;20.70;;;15.20;63.50;;;;;;4979019;28;20127;-65
2022/03/25 11:27:54;;;;;;;30.08;20.23;;;15.20;64.50;;;;;;4985907;28;20098;-65
2022/03/25 11:30:20;;;;;;;29.77;19.42;;;15.30;64.30;;;;;;4992906;28;20050;-65
2022/03/25 11:33:02;;;;;;;31.10;19.70;;;15.40;64.10;;;;;;4985115;28;20121;-65
2022/03/25 11:35:30;;;;;;;29.30;19.92;;;15.40;63.20;;;;;;4984857;28;20058;-65
2022/03/25 11:38:11;;;;;;;30.08;19.55;;;15.50;63.70;;;;;;4961556;28;20054;-67
2022/03/25 11:40:42;;;;;;;31.20;18.97;;;15.60;61.20;;;;;;4976665;28;20077;-65
2022/03/25 11:43:25;;;;;;;31.70;19.45;;;15.70;62.80;;;;;;4977606;28;20051;-65
2022/03/25 11:46:09;;;;;;;34.00;20.05;;;15.80;60.60;;;;;;4960232;28;20061;-65
2022/03/25 11:48:39;;;;;;;31.50;19.42;;;15.90;60.90;;;;;;4982780;28;20054;-65
2022/03/25 11:51:26;;;;;;;33.03;19.73;;;15.90;61.70;;;;;;4989428;28;20453;-66
2022/03/25 11:53:51;;;;;;;29.83;18.27;;;16.10;60.80;;;;;;4986341;28;20055;-65
2022/03/25 11:56:17;;;;;;;32.85;19.58;;;16.20;61.60;;;;;;4980474;28;20458;-65
2022/03/25 11:58:55;;;;;;;33.58;19.20;;;16.30;61.20;;;;;;4986091;28;20050;-66
2022/03/25 12:01:21;;;;;;;30.55;19.25;;;16.40;60.00;;;;;;4991638;28;20046;-66
2022/03/25 12:03:57;;;;;;;38.53;20.38;;;16.40;60.30;;;;;;4985737;28;20051;-66
2022/03/25 12:06:28;;;;;;;30.85;19.02;;;16.50;59.90;;;;;;5001151;28;20085;-66
2022/03/25 12:09:06;;;;;;;28.20;18.80;;;16.50;59.70;;;;;;4984386;28;20052;-66
2022/03/25 12:11:56;;;;;;;30.75;19.25;;;16.50;59.10;;;;;;4987606;28;20061;-66
2022/03/25 12:14:32;;;;;;;32.53;19.73;;;16.50;58.70;;;;;;4990233;28;20050;-67
2022/03/25 12:17:06;;;;;;;31.05;19.17;;;16.60;59.10;;;;;;4984789;28;20118;-66
2022/03/25 12:19:39;;;;;;;35.80;19.35;;;16.60;59.10;;;;;;4984702;28;20054;-66
2022/03/25 12:22:20;;;;;;;29.85;19.23;;;16.70;58.80;;;;;;4996141;28;20093;-66
2022/03/25 12:24:47;;;;;;;32.60;18.75;;;16.70;57.60;;;;;;4994616;28;20054;-66
2022/03/25 12:27:12;;;;;;;28.80;18.73;;;16.80;58.40;;;;;;4993456;28;20066;-67
2022/03/25 12:29:40;;;;;;;28.13;18.42;;;16.90;58.20;;;;;;4995294;28;20058;-66
2022/03/25 12:32:08;;;;;;;29.52;19.65;;;16.90;57.80;;;;;;4995877;28;20050;-66
2022/03/25 12:34:55;;;;;;;35.53;19.58;;;17.00;57.60;;;;;;4993052;28;20058;-67
2022/03/25 12:37:22;;;;;;;30.45;18.20;;;17.10;56.40;;;;;;4976273;28;20097;-67
2022/03/25 12:39:48;;;;;;;29.13;18.13;;;17.10;57.50;;;;;;4976403;28;20059;-66